sensor_id;sensor_type;location;lat;lon;timestamp;temperature;humidity
17154;DHT22;8692;52.164;7.558;2022-10-16T00:01:53;12.50;99.90
17154;DHT22;8692;52.164;7.558;2022-10-16T00:04:21;12.50;99.90
17154;DHT22;8692;52.164;7.558;2022-10-16T00:06:52;12.50;99.90
17154;DHT22;8692;52.164;7.558;2022-10-16T00:09:22;12.50;99.90
17154;DHT22;8692;52.164;7.558;2022-10-16T00:11:50;12.50;99.90
17154;DHT22;8692;52.164;7.558;2022-10-16T00:14:26;12.50;99.90
17154;DHT22;8692;52.164;7.558;2022-10-16T00:16:55;12.50;99.90
17154;DHT22;8692;52.164;7.558;2022-10-16T00:19:26;12.50;99.90
17154;DHT22;8692;52.164;7.558;2022-10-16T00:21:56;12.50;99.90
17154;DHT22;8692;52.164;7.558;2022-10-16T00:24:24;12.50;99.90
17154;DHT22;8692;52.164;7.558;2022-10-16T00:26:52;12.50;99.90
17154;DHT22;8692;52.164;7.558;2022-10-16T00:29:23;12.40;99.90
17154;DHT22;8692;52.164;7.558;2022-10-16T00:31:55;12.40;99.90
17154;DHT22;8692;52.164;7.558;2022-10-16T00:34:23;12.40;99.90
17154;DHT22;8692;52.164;7.558;2022-10-16T00:36:51;12.40;99.90
17154;DHT22;8692;52.164;7.558;2022-10-16T00:39:19;12.40;99.90
17154;DHT22;8692;52.164;7.558;2022-10-16T00:41:50;12.40;99.90
17154;DHT22;8692;52.164;7.558;2022-10-16T00:44:41;12.40;99.90
17154;DHT22;8692;52.164;7.558;2022-10-16T00:47:19;12.40;99.90
17154;DHT22;8692;52.164;7.558;2022-10-16T00:49:55;12.40;99.90
17154;DHT22;8692;52.164;7.558;2022-10-16T00:52:24;12.40;99.90
17154;DHT22;8692;52.164;7.558;2022-10-16T00:54:53;12.40;99.90
17154;DHT22;8692;52.164;7.558;2022-10-16T00:57:22;12.40;99.90
17154;DHT22;8692;52.164;7.558;2022-10-16T00:59:51;12.40;99.90
17154;DHT22;8692;52.164;7.558;2022-10-16T01:02:20;12.40;99.90
17154;DHT22;8692;52.164;7.558;2022-10-16T01:04:51;12.30;99.90
17154;DHT22;8692;52.164;7.558;2022-10-16T01:07:30;12.30;99.90
17154;DHT22;8692;52.164;7.558;2022-10-16T01:10:07;12.30;99.90
17154;DHT22;8692;52.164;7.558;2022-10-16T01:12:41;12.30;99.90
17154;DHT22;8692;52.164;7.558;2022-10-16T01:15:18;12.30;99.90
17154;DHT22;8692;52.164;7.558;2022-10-16T01:17:55;12.30;99.90
17154;DHT22;8692;52.164;7.558;2022-10-16T01:20:30;12.30;99.90
17154;DHT22;8692;52.164;7.558;2022-10-16T01:23:10;12.30;99.90
17154;DHT22;8692;52.164;7.558;2022-10-16T01:25:59;12.30;99.90
17154;DHT22;8692;52.164;7.558;2022-10-16T01:28:36;12.30;99.90
17154;DHT22;8692;52.164;7.558;2022-10-16T01:31:08;12.30;99.90
17154;DHT22;8692;52.164;7.558;2022-10-16T01:33:41;12.30;99.90
17154;DHT22;8692;52.164;7.558;2022-10-16T01:36:13;12.30;99.90
17154;DHT22;8692;52.164;7.558;2022-10-16T01:38:44;12.30;99.90
17154;DHT22;8692;52.164;7.558;2022-10-16T01:41:19;12.30;99.90
17154;DHT22;8692;52.164;7.558;2022-10-16T01:43:56;12.30;99.90
17154;DHT22;8692;52.164;7.558;2022-10-16T01:46:28;12.30;99.90
17154;DHT22;8692;52.164;7.558;2022-10-16T01:49:02;12.30;99.90
17154;DHT22;8692;52.164;7.558;2022-10-16T01:51:34;12.40;99.90
17154;DHT22;8692;52.164;7.558;2022-10-16T01:54:05;12.40;99.90
17154;DHT22;8692;52.164;7.558;2022-10-16T01:56:35;12.40;99.90
17154;DHT22;8692;52.164;7.558;2022-10-16T01:59:09;12.40;99.90
17154;DHT22;8692;52.164;7.558;2022-10-16T02:01:41;12.40;99.90
17154;DHT22;8692;52.164;7.558;2022-10-16T02:04:15;12.40;99.90
17154;DHT22;8692;52.164;7.558;2022-10-16T02:06:43;12.40;99.90
17154;DHT22;8692;52.164;7.558;2022-10-16T02:09:12;12.40;99.90
17154;DHT22;8692;52.164;7.558;2022-10-16T02:11:42;12.30;99.90
17154;DHT22;8692;52.164;7.558;2022-10-16T02:14:12;12.40;99.90
17154;DHT22;8692;52.164;7.558;2022-10-16T02:16:44;12.40;99.90
17154;DHT22;8692;52.164;7.558;2022-10-16T02:19:15;12.30;99.90
17154;DHT22;8692;52.164;7.558;2022-10-16T02:21:50;12.30;99.90
17154;DHT22;8692;52.164;7.558;2022-10-16T02:24:26;12.30;99.90
17154;DHT22;8692;52.164;7.558;2022-10-16T02:27:03;12.30;99.90
17154;DHT22;8692;52.164;7.558;2022-10-16T02:29:40;12.30;99.90
17154;DHT22;8692;52.164;7.558;2022-10-16T02:32:13;12.30;99.90
17154;DHT22;8692;52.164;7.558;2022-10-16T02:34:44;12.30;99.90
17154;DHT22;8692;52.164;7.558;2022-10-16T02:37:13;12.30;99.90
17154;DHT22;8692;52.164;7.558;2022-10-16T02:39:41;12.30;99.90
17154;DHT22;8692;52.164;7.558;2022-10-16T02:42:12;12.30;99.90
17154;DHT22;8692;52.164;7.558;2022-10-16T02:44:42;12.30;99.90
17154;DHT22;8692;52.164;7.558;2022-10-16T02:47:10;12.30;99.90
17154;DHT22;8692;52.164;7.558;2022-10-16T02:49:41;12.30;99.90
17154;DHT22;8692;52.164;7.558;2022-10-16T02:52:12;12.30;99.90
17154;DHT22;8692;52.164;7.558;2022-10-16T02:54:40;12.30;99.90
17154;DHT22;8692;52.164;7.558;2022-10-16T02:57:08;12.30;99.90
17154;DHT22;8692;52.164;7.558;2022-10-16T02:59:36;12.30;99.90
17154;DHT22;8692;52.164;7.558;2022-10-16T03:02:06;12.30;99.90
17154;DHT22;8692;52.164;7.558;2022-10-16T03:04:34;12.30;99.90
17154;DHT22;8692;52.164;7.558;2022-10-16T03:07:02;12.40;99.90
17154;DHT22;8692;52.164;7.558;2022-10-16T03:09:33;12.40;99.90
17154;DHT22;8692;52.164;7.558;2022-10-16T03:12:01;12.40;99.90
17154;DHT22;8692;52.164;7.558;2022-10-16T03:14:31;12.40;99.90
17154;DHT22;8692;52.164;7.558;2022-10-16T03:16:59;12.40;99.90
17154;DHT22;8692;52.164;7.558;2022-10-16T03:19:29;12.40;99.90
17154;DHT22;8692;52.164;7.558;2022-10-16T03:21:57;12.50;99.90
17154;DHT22;8692;52.164;7.558;2022-10-16T03:24:25;12.40;99.90
17154;DHT22;8692;52.164;7.558;2022-10-16T03:26:53;12.50;99.90
17154;DHT22;8692;52.164;7.558;2022-10-16T03:29:21;12.50;99.90
17154;DHT22;8692;52.164;7.558;2022-10-16T03:31:49;12.50;99.90
17154;DHT22;8692;52.164;7.558;2022-10-16T03:34:20;12.50;99.90
17154;DHT22;8692;52.164;7.558;2022-10-16T03:36:49;12.50;99.90
17154;DHT22;8692;52.164;7.558;2022-10-16T03:39:19;12.50;99.90
17154;DHT22;8692;52.164;7.558;2022-10-16T03:41:47;12.50;99.90
17154;DHT22;8692;52.164;7.558;2022-10-16T03:44:15;12.50;99.90
17154;DHT22;8692;52.164;7.558;2022-10-16T03:46:43;12.50;99.90
17154;DHT22;8692;52.164;7.558;2022-10-16T03:49:11;12.50;99.90
17154;DHT22;8692;52.164;7.558;2022-10-16T03:51:41;12.50;99.90
17154;DHT22;8692;52.164;7.558;2022-10-16T03:54:13;12.50;99.90
17154;DHT22;8692;52.164;7.558;2022-10-16T03:56:41;12.50;99.90
17154;DHT22;8692;52.164;7.558;2022-10-16T03:59:09;12.50;99.90
17154;DHT22;8692;52.164;7.558;2022-10-16T04:01:39;12.50;99.90
17154;DHT22;8692;52.164;7.558;2022-10-16T04:04:07;12.50;99.90
17154;DHT22;8692;52.164;7.558;2022-10-16T04:06:35;12.50;99.90
17154;DHT22;8692;52.164;7.558;2022-10-16T04:09:04;12.50;99.90
17154;DHT22;8692;52.164;7.558;2022-10-16T04:11:36;12.50;99.90
17154;DHT22;8692;52.164;7.558;2022-10-16T04:14:04;12.50;99.90
17154;DHT22;8692;52.164;7.558;2022-10-16T04:16:32;12.50;99.90
17154;DHT22;8692;52.164;7.558;2022-10-16T04:19:00;12.50;99.90
17154;DHT22;8692;52.164;7.558;2022-10-16T04:21:28;12.50;99.90
17154;DHT22;8692;52.164;7.558;2022-10-16T04:23:56;12.50;99.90
17154;DHT22;8692;52.164;7.558;2022-10-16T04:26:25;12.50;99.90
17154;DHT22;8692;52.164;7.558;2022-10-16T04:28:56;12.50;99.90
17154;DHT22;8692;52.164;7.558;2022-10-16T04:31:25;12.50;99.90
17154;DHT22;8692;52.164;7.558;2022-10-16T04:33:55;12.50;99.90
17154;DHT22;8692;52.164;7.558;2022-10-16T04:36:23;12.50;99.90
17154;DHT22;8692;52.164;7.558;2022-10-16T04:38:55;12.50;99.90
17154;DHT22;8692;52.164;7.558;2022-10-16T04:41:25;12.50;99.90
17154;DHT22;8692;52.164;7.558;2022-10-16T04:43:57;12.50;99.90
17154;DHT22;8692;52.164;7.558;2022-10-16T04:46:25;12.50;99.90
17154;DHT22;8692;52.164;7.558;2022-10-16T04:48:53;12.40;99.90
17154;DHT22;8692;52.164;7.558;2022-10-16T04:51:21;12.40;99.90
17154;DHT22;8692;52.164;7.558;2022-10-16T04:53:49;12.40;99.90
17154;DHT22;8692;52.164;7.558;2022-10-16T04:56:18;12.40;99.90
17154;DHT22;8692;52.164;7.558;2022-10-16T04:58:46;12.50;99.90
17154;DHT22;8692;52.164;7.558;2022-10-16T05:01:15;12.40;99.90
17154;DHT22;8692;52.164;7.558;2022-10-16T05:03:43;12.40;99.90
17154;DHT22;8692;52.164;7.558;2022-10-16T05:06:14;12.50;99.90
17154;DHT22;8692;52.164;7.558;2022-10-16T05:08:42;12.50;99.90
17154;DHT22;8692;52.164;7.558;2022-10-16T05:11:10;12.40;99.90
17154;DHT22;8692;52.164;7.558;2022-10-16T05:13:38;12.40;99.90
17154;DHT22;8692;52.164;7.558;2022-10-16T05:16:06;12.50;99.90
17154;DHT22;8692;52.164;7.558;2022-10-16T05:18:38;12.40;99.90
17154;DHT22;8692;52.164;7.558;2022-10-16T05:21:06;12.40;99.90
17154;DHT22;8692;52.164;7.558;2022-10-16T05:23:34;12.40;99.90
17154;DHT22;8692;52.164;7.558;2022-10-16T05:26:02;12.40;99.90
17154;DHT22;8692;52.164;7.558;2022-10-16T05:28:30;12.40;99.90
17154;DHT22;8692;52.164;7.558;2022-10-16T05:31:04;12.40;99.90
17154;DHT22;8692;52.164;7.558;2022-10-16T05:33:33;12.40;99.90
17154;DHT22;8692;52.164;7.558;2022-10-16T05:36:08;12.40;99.90
17154;DHT22;8692;52.164;7.558;2022-10-16T05:38:37;12.40;99.90
17154;DHT22;8692;52.164;7.558;2022-10-16T05:41:05;12.30;99.90
17154;DHT22;8692;52.164;7.558;2022-10-16T05:43:36;12.40;99.90
17154;DHT22;8692;52.164;7.558;2022-10-16T05:46:05;12.30;99.90
17154;DHT22;8692;52.164;7.558;2022-10-16T05:48:36;12.40;99.90
17154;DHT22;8692;52.164;7.558;2022-10-16T05:51:10;12.30;99.90
17154;DHT22;8692;52.164;7.558;2022-10-16T05:53:41;12.30;99.90
17154;DHT22;8692;52.164;7.558;2022-10-16T05:56:10;12.30;99.90
17154;DHT22;8692;52.164;7.558;2022-10-16T05:58:41;12.30;99.90
17154;DHT22;8692;52.164;7.558;2022-10-16T06:01:12;12.30;99.90
17154;DHT22;8692;52.164;7.558;2022-10-16T06:03:41;12.30;99.90
17154;DHT22;8692;52.164;7.558;2022-10-16T06:06:11;12.30;99.90
17154;DHT22;8692;52.164;7.558;2022-10-16T06:08:40;12.20;99.90
17154;DHT22;8692;52.164;7.558;2022-10-16T06:11:11;12.20;99.90
17154;DHT22;8692;52.164;7.558;2022-10-16T06:13:41;12.20;99.90
17154;DHT22;8692;52.164;7.558;2022-10-16T06:16:12;12.20;99.90
17154;DHT22;8692;52.164;7.558;2022-10-16T06:18:43;12.20;99.90
17154;DHT22;8692;52.164;7.558;2022-10-16T06:21:17;12.20;99.90
17154;DHT22;8692;52.164;7.558;2022-10-16T06:23:47;12.20;99.90
17154;DHT22;8692;52.164;7.558;2022-10-16T06:26:17;12.20;99.90
17154;DHT22;8692;52.164;7.558;2022-10-16T06:28:48;12.20;99.90
17154;DHT22;8692;52.164;7.558;2022-10-16T06:31:20;12.20;99.90
17154;DHT22;8692;52.164;7.558;2022-10-16T06:33:51;12.20;99.90
17154;DHT22;8692;52.164;7.558;2022-10-16T06:36:23;12.20;99.90
17154;DHT22;8692;52.164;7.558;2022-10-16T06:38:51;12.10;99.90
17154;DHT22;8692;52.164;7.558;2022-10-16T06:41:23;12.10;99.90
17154;DHT22;8692;52.164;7.558;2022-10-16T06:43:51;12.20;99.90
17154;DHT22;8692;52.164;7.558;2022-10-16T06:46:22;12.20;99.90
17154;DHT22;8692;52.164;7.558;2022-10-16T06:48:50;12.20;99.90
17154;DHT22;8692;52.164;7.558;2022-10-16T06:51:19;12.10;99.90
17154;DHT22;8692;52.164;7.558;2022-10-16T06:53:50;12.10;99.90
17154;DHT22;8692;52.164;7.558;2022-10-16T06:56:34;12.10;99.90
17154;DHT22;8692;52.164;7.558;2022-10-16T06:59:03;12.20;99.90
17154;DHT22;8692;52.164;7.558;2022-10-16T07:01:31;12.20;99.90
17154;DHT22;8692;52.164;7.558;2022-10-16T07:04:02;12.20;99.90
17154;DHT22;8692;52.164;7.558;2022-10-16T07:06:33;12.20;99.90
17154;DHT22;8692;52.164;7.558;2022-10-16T07:09:05;12.20;99.90
17154;DHT22;8692;52.164;7.558;2022-10-16T07:11:36;12.20;99.90
17154;DHT22;8692;52.164;7.558;2022-10-16T07:14:15;12.20;99.90
17154;DHT22;8692;52.164;7.558;2022-10-16T07:16:43;12.20;99.90
17154;DHT22;8692;52.164;7.558;2022-10-16T07:19:11;12.30;99.90
17154;DHT22;8692;52.164;7.558;2022-10-16T07:21:41;12.30;99.90
17154;DHT22;8692;52.164;7.558;2022-10-16T07:24:13;12.30;99.90
17154;DHT22;8692;52.164;7.558;2022-10-16T07:26:42;12.30;99.90
17154;DHT22;8692;52.164;7.558;2022-10-16T07:29:12;12.30;99.90
17154;DHT22;8692;52.164;7.558;2022-10-16T07:31:41;12.40;99.90
17154;DHT22;8692;52.164;7.558;2022-10-16T07:34:13;12.40;99.90
17154;DHT22;8692;52.164;7.558;2022-10-16T07:36:42;12.40;99.90
17154;DHT22;8692;52.164;7.558;2022-10-16T07:39:14;12.50;99.90
17154;DHT22;8692;52.164;7.558;2022-10-16T07:41:42;12.50;99.90
17154;DHT22;8692;52.164;7.558;2022-10-16T07:44:10;12.60;99.90
17154;DHT22;8692;52.164;7.558;2022-10-16T07:46:38;12.70;99.90
17154;DHT22;8692;52.164;7.558;2022-10-16T07:49:06;12.70;99.90
17154;DHT22;8692;52.164;7.558;2022-10-16T07:51:37;12.80;99.90
17154;DHT22;8692;52.164;7.558;2022-10-16T07:54:05;12.90;99.90
17154;DHT22;8692;52.164;7.558;2022-10-16T07:56:35;13.00;99.90
17154;DHT22;8692;52.164;7.558;2022-10-16T07:59:11;13.00;99.90
17154;DHT22;8692;52.164;7.558;2022-10-16T08:01:41;13.10;99.90
17154;DHT22;8692;52.164;7.558;2022-10-16T08:04:10;13.20;99.90
17154;DHT22;8692;52.164;7.558;2022-10-16T08:06:39;13.20;99.90
17154;DHT22;8692;52.164;7.558;2022-10-16T08:09:08;13.30;99.90
17154;DHT22;8692;52.164;7.558;2022-10-16T08:11:38;13.40;99.90
17154;DHT22;8692;52.164;7.558;2022-10-16T08:14:06;13.50;99.90
17154;DHT22;8692;52.164;7.558;2022-10-16T08:16:37;13.50;99.90
17154;DHT22;8692;52.164;7.558;2022-10-16T08:19:05;13.60;99.90
17154;DHT22;8692;52.164;7.558;2022-10-16T08:21:36;13.70;99.90
17154;DHT22;8692;52.164;7.558;2022-10-16T08:24:04;13.80;99.90
17154;DHT22;8692;52.164;7.558;2022-10-16T08:26:32;13.90;99.90
17154;DHT22;8692;52.164;7.558;2022-10-16T08:29:02;13.90;99.90
17154;DHT22;8692;52.164;7.558;2022-10-16T08:31:30;14.00;99.90
17154;DHT22;8692;52.164;7.558;2022-10-16T08:33:58;14.00;99.90
17154;DHT22;8692;52.164;7.558;2022-10-16T08:36:29;14.10;99.90
17154;DHT22;8692;52.164;7.558;2022-10-16T08:38:57;14.20;99.90
17154;DHT22;8692;52.164;7.558;2022-10-16T08:42:04;14.20;99.90
17154;DHT22;8692;52.164;7.558;2022-10-16T08:44:59;14.20;99.90
17154;DHT22;8692;52.164;7.558;2022-10-16T08:47:39;14.30;99.90
17154;DHT22;8692;52.164;7.558;2022-10-16T08:50:13;14.40;99.90
17154;DHT22;8692;52.164;7.558;2022-10-16T08:52:43;14.40;99.90
17154;DHT22;8692;52.164;7.558;2022-10-16T08:55:28;14.50;99.90
17154;DHT22;8692;52.164;7.558;2022-10-16T08:57:59;14.50;99.90
17154;DHT22;8692;52.164;7.558;2022-10-16T09:00:30;14.60;99.90
17154;DHT22;8692;52.164;7.558;2022-10-16T09:03:07;14.60;99.90
17154;DHT22;8692;52.164;7.558;2022-10-16T09:05:55;14.70;99.90
17154;DHT22;8692;52.164;7.558;2022-10-16T09:08:31;14.70;99.90
17154;DHT22;8692;52.164;7.558;2022-10-16T09:11:10;14.80;99.90
17154;DHT22;8692;52.164;7.558;2022-10-16T09:13:49;14.80;99.90
17154;DHT22;8692;52.164;7.558;2022-10-16T09:16:24;15.00;99.90
17154;DHT22;8692;52.164;7.558;2022-10-16T09:19:03;15.00;99.90
17154;DHT22;8692;52.164;7.558;2022-10-16T09:21:36;15.10;99.90
17154;DHT22;8692;52.164;7.558;2022-10-16T09:24:11;15.10;99.90
17154;DHT22;8692;52.164;7.558;2022-10-16T09:26:42;15.20;99.90
17154;DHT22;8692;52.164;7.558;2022-10-16T09:29:11;15.30;99.90
17154;DHT22;8692;52.164;7.558;2022-10-16T09:31:42;15.40;99.90
17154;DHT22;8692;52.164;7.558;2022-10-16T09:34:17;15.40;99.90
17154;DHT22;8692;52.164;7.558;2022-10-16T09:36:48;15.40;99.90
17154;DHT22;8692;52.164;7.558;2022-10-16T09:39:17;15.40;99.90
17154;DHT22;8692;52.164;7.558;2022-10-16T09:41:47;15.50;99.90
17154;DHT22;8692;52.164;7.558;2022-10-16T09:44:22;15.50;99.90
17154;DHT22;8692;52.164;7.558;2022-10-16T09:47:02;15.50;99.90
17154;DHT22;8692;52.164;7.558;2022-10-16T09:49:32;15.50;99.90
17154;DHT22;8692;52.164;7.558;2022-10-16T09:52:04;15.50;99.90
17154;DHT22;8692;52.164;7.558;2022-10-16T09:54:33;15.50;99.90
17154;DHT22;8692;52.164;7.558;2022-10-16T09:57:05;15.50;99.90
17154;DHT22;8692;52.164;7.558;2022-10-16T09:59:33;15.50;99.90
17154;DHT22;8692;52.164;7.558;2022-10-16T10:02:11;15.60;99.90
17154;DHT22;8692;52.164;7.558;2022-10-16T10:04:46;15.70;99.90
17154;DHT22;8692;52.164;7.558;2022-10-16T10:07:23;15.70;99.90
17154;DHT22;8692;52.164;7.558;2022-10-16T10:09:53;15.80;99.90
17154;DHT22;8692;52.164;7.558;2022-10-16T10:12:26;15.80;99.90
17154;DHT22;8692;52.164;7.558;2022-10-16T10:14:56;15.80;99.90
17154;DHT22;8692;52.164;7.558;2022-10-16T10:17:27;15.90;99.90
17154;DHT22;8692;52.164;7.558;2022-10-16T10:19:59;15.90;99.90
17154;DHT22;8692;52.164;7.558;2022-10-16T10:22:32;15.90;99.90
17154;DHT22;8692;52.164;7.558;2022-10-16T10:25:19;16.00;99.90
17154;DHT22;8692;52.164;7.558;2022-10-16T10:28:05;16.10;99.90
17154;DHT22;8692;52.164;7.558;2022-10-16T10:30:42;16.20;99.90
17154;DHT22;8692;52.164;7.558;2022-10-16T10:33:20;16.20;99.90
17154;DHT22;8692;52.164;7.558;2022-10-16T10:36:00;16.30;99.90
17154;DHT22;8692;52.164;7.558;2022-10-16T10:38:39;16.20;99.90
17154;DHT22;8692;52.164;7.558;2022-10-16T10:41:20;16.20;99.90
17154;DHT22;8692;52.164;7.558;2022-10-16T10:44:03;16.20;99.90
17154;DHT22;8692;52.164;7.558;2022-10-16T10:46:41;16.20;99.90
17154;DHT22;8692;52.164;7.558;2022-10-16T10:49:34;16.10;99.90
17154;DHT22;8692;52.164;7.558;2022-10-16T10:52:19;16.10;99.90
17154;DHT22;8692;52.164;7.558;2022-10-16T10:54:55;16.10;99.90
17154;DHT22;8692;52.164;7.558;2022-10-16T10:57:31;16.20;99.90
17154;DHT22;8692;52.164;7.558;2022-10-16T11:00:19;16.20;99.90
17154;DHT22;8692;52.164;7.558;2022-10-16T11:02:53;16.30;99.90
17154;DHT22;8692;52.164;7.558;2022-10-16T11:05:33;16.30;99.90
17154;DHT22;8692;52.164;7.558;2022-10-16T11:08:09;16.40;99.90
17154;DHT22;8692;52.164;7.558;2022-10-16T11:10:44;16.40;99.90
17154;DHT22;8692;52.164;7.558;2022-10-16T11:13:20;16.50;99.90
17154;DHT22;8692;52.164;7.558;2022-10-16T11:15:52;16.50;99.90
17154;DHT22;8692;52.164;7.558;2022-10-16T11:18:29;16.60;99.90
17154;DHT22;8692;52.164;7.558;2022-10-16T11:21:05;16.70;99.90
17154;DHT22;8692;52.164;7.558;2022-10-16T11:23:38;16.70;99.90
17154;DHT22;8692;52.164;7.558;2022-10-16T11:26:14;16.80;99.90
17154;DHT22;8692;52.164;7.558;2022-10-16T11:28:45;16.80;99.90
17154;DHT22;8692;52.164;7.558;2022-10-16T11:31:19;16.90;99.90
17154;DHT22;8692;52.164;7.558;2022-10-16T11:33:53;16.90;99.90
17154;DHT22;8692;52.164;7.558;2022-10-16T11:36:30;17.00;99.90
17154;DHT22;8692;52.164;7.558;2022-10-16T11:39:11;17.10;99.90
17154;DHT22;8692;52.164;7.558;2022-10-16T11:41:44;17.10;99.90
17154;DHT22;8692;52.164;7.558;2022-10-16T11:44:27;17.20;99.90
17154;DHT22;8692;52.164;7.558;2022-10-16T11:47:12;17.20;99.90
17154;DHT22;8692;52.164;7.558;2022-10-16T11:50:12;17.30;99.90
17154;DHT22;8692;52.164;7.558;2022-10-16T11:52:51;17.40;99.90
17154;DHT22;8692;52.164;7.558;2022-10-16T11:55:21;17.60;99.90
17154;DHT22;8692;52.164;7.558;2022-10-16T11:57:54;17.60;99.90
17154;DHT22;8692;52.164;7.558;2022-10-16T12:00:28;17.70;99.90
17154;DHT22;8692;52.164;7.558;2022-10-16T12:03:04;17.80;99.90
17154;DHT22;8692;52.164;7.558;2022-10-16T12:05:44;17.90;99.90
17154;DHT22;8692;52.164;7.558;2022-10-16T12:08:21;17.90;99.90
17154;DHT22;8692;52.164;7.558;2022-10-16T12:10:50;18.00;99.90
17154;DHT22;8692;52.164;7.558;2022-10-16T12:13:30;18.00;99.90
17154;DHT22;8692;52.164;7.558;2022-10-16T12:16:07;18.10;99.90
17154;DHT22;8692;52.164;7.558;2022-10-16T12:18:48;18.10;99.90
17154;DHT22;8692;52.164;7.558;2022-10-16T12:21:17;18.20;99.90
17154;DHT22;8692;52.164;7.558;2022-10-16T12:23:50;18.20;99.90
17154;DHT22;8692;52.164;7.558;2022-10-16T12:26:31;18.20;99.90
17154;DHT22;8692;52.164;7.558;2022-10-16T12:29:22;18.30;99.90
17154;DHT22;8692;52.164;7.558;2022-10-16T12:31:52;18.30;99.90
17154;DHT22;8692;52.164;7.558;2022-10-16T12:34:28;18.30;99.90
17154;DHT22;8692;52.164;7.558;2022-10-16T12:37:08;18.40;99.90
17154;DHT22;8692;52.164;7.558;2022-10-16T12:39:38;18.50;99.90
17154;DHT22;8692;52.164;7.558;2022-10-16T12:42:21;18.50;99.90
17154;DHT22;8692;52.164;7.558;2022-10-16T12:44:52;18.50;99.90
17154;DHT22;8692;52.164;7.558;2022-10-16T12:47:35;18.50;99.90
17154;DHT22;8692;52.164;7.558;2022-10-16T12:50:27;18.50;99.90
17154;DHT22;8692;52.164;7.558;2022-10-16T12:53:00;18.50;99.90
17154;DHT22;8692;52.164;7.558;2022-10-16T12:55:44;18.50;99.90
17154;DHT22;8692;52.164;7.558;2022-10-16T12:58:25;18.60;99.90
17154;DHT22;8692;52.164;7.558;2022-10-16T13:00:58;18.60;99.90
17154;DHT22;8692;52.164;7.558;2022-10-16T13:03:46;18.60;99.90
17154;DHT22;8692;52.164;7.558;2022-10-16T13:06:23;18.70;99.90
17154;DHT22;8692;52.164;7.558;2022-10-16T13:09:19;18.70;99.90
17154;DHT22;8692;52.164;7.558;2022-10-16T13:12:01;18.70;99.90
17154;DHT22;8692;52.164;7.558;2022-10-16T13:14:54;18.70;99.90
17154;DHT22;8692;52.164;7.558;2022-10-16T13:17:32;18.80;99.90
17154;DHT22;8692;52.164;7.558;2022-10-16T13:20:12;18.80;99.90
17154;DHT22;8692;52.164;7.558;2022-10-16T13:22:55;18.80;99.90
17154;DHT22;8692;52.164;7.558;2022-10-16T13:25:35;18.90;99.90
17154;DHT22;8692;52.164;7.558;2022-10-16T13:28:08;18.90;99.90
17154;DHT22;8692;52.164;7.558;2022-10-16T13:30:40;18.90;99.90
17154;DHT22;8692;52.164;7.558;2022-10-16T13:33:15;18.90;99.90
17154;DHT22;8692;52.164;7.558;2022-10-16T13:35:50;19.00;99.90
17154;DHT22;8692;52.164;7.558;2022-10-16T13:38:22;19.10;99.90
17154;DHT22;8692;52.164;7.558;2022-10-16T13:40:54;19.10;99.90
17154;DHT22;8692;52.164;7.558;2022-10-16T13:43:27;19.20;99.90
17154;DHT22;8692;52.164;7.558;2022-10-16T13:45:59;19.20;99.90
17154;DHT22;8692;52.164;7.558;2022-10-16T13:48:29;19.20;99.90
17154;DHT22;8692;52.164;7.558;2022-10-16T13:51:05;19.20;99.50
17154;DHT22;8692;52.164;7.558;2022-10-16T13:53:35;19.20;99.90
17154;DHT22;8692;52.164;7.558;2022-10-16T13:56:05;19.20;99.90
17154;DHT22;8692;52.164;7.558;2022-10-16T13:58:35;19.20;99.90
17154;DHT22;8692;52.164;7.558;2022-10-16T14:01:16;19.20;99.90
17154;DHT22;8692;52.164;7.558;2022-10-16T14:03:45;19.20;99.90
17154;DHT22;8692;52.164;7.558;2022-10-16T14:06:19;19.20;99.90
17154;DHT22;8692;52.164;7.558;2022-10-16T14:08:53;19.20;99.90
17154;DHT22;8692;52.164;7.558;2022-10-16T14:11:26;19.20;99.90
17154;DHT22;8692;52.164;7.558;2022-10-16T14:13:56;19.30;99.90
17154;DHT22;8692;52.164;7.558;2022-10-16T14:16:27;19.20;99.90
17154;DHT22;8692;52.164;7.558;2022-10-16T14:19:01;19.20;99.90
17154;DHT22;8692;52.164;7.558;2022-10-16T14:21:33;19.30;99.90
17154;DHT22;8692;52.164;7.558;2022-10-16T14:24:11;19.30;99.90
17154;DHT22;8692;52.164;7.558;2022-10-16T14:26:42;19.30;99.90
17154;DHT22;8692;52.164;7.558;2022-10-16T14:29:42;19.30;99.90
17154;DHT22;8692;52.164;7.558;2022-10-16T14:32:22;19.40;99.90
17154;DHT22;8692;52.164;7.558;2022-10-16T14:34:53;19.40;99.90
17154;DHT22;8692;52.164;7.558;2022-10-16T14:37:24;19.30;99.90
17154;DHT22;8692;52.164;7.558;2022-10-16T14:39:56;19.30;99.90
17154;DHT22;8692;52.164;7.558;2022-10-16T14:42:27;19.20;99.90
17154;DHT22;8692;52.164;7.558;2022-10-16T14:44:59;19.20;99.90
17154;DHT22;8692;52.164;7.558;2022-10-16T14:47:30;19.10;99.90
17154;DHT22;8692;52.164;7.558;2022-10-16T14:49:59;19.10;99.90
17154;DHT22;8692;52.164;7.558;2022-10-16T14:52:29;19.00;99.90
17154;DHT22;8692;52.164;7.558;2022-10-16T14:54:57;19.00;99.90
17154;DHT22;8692;52.164;7.558;2022-10-16T14:57:28;18.90;99.90
17154;DHT22;8692;52.164;7.558;2022-10-16T15:00:03;18.80;99.90
17154;DHT22;8692;52.164;7.558;2022-10-16T15:02:35;18.80;99.90
17154;DHT22;8692;52.164;7.558;2022-10-16T15:05:11;18.70;99.90
17154;DHT22;8692;52.164;7.558;2022-10-16T15:07:42;18.70;99.90
17154;DHT22;8692;52.164;7.558;2022-10-16T15:10:11;18.60;99.90
17154;DHT22;8692;52.164;7.558;2022-10-16T15:12:41;18.60;99.90
17154;DHT22;8692;52.164;7.558;2022-10-16T15:15:24;18.60;99.90
17154;DHT22;8692;52.164;7.558;2022-10-16T15:17:54;18.50;99.90
17154;DHT22;8692;52.164;7.558;2022-10-16T15:20:24;18.40;99.90
17154;DHT22;8692;52.164;7.558;2022-10-16T15:22:52;18.40;99.90
17154;DHT22;8692;52.164;7.558;2022-10-16T15:25:37;18.30;99.90
17154;DHT22;8692;52.164;7.558;2022-10-16T15:28:06;18.20;99.90
17154;DHT22;8692;52.164;7.558;2022-10-16T15:30:36;18.10;99.90
17154;DHT22;8692;52.164;7.558;2022-10-16T15:33:10;18.10;99.90
17154;DHT22;8692;52.164;7.558;2022-10-16T15:35:39;18.00;99.90
17154;DHT22;8692;52.164;7.558;2022-10-16T15:38:10;18.00;99.90
17154;DHT22;8692;52.164;7.558;2022-10-16T15:40:39;17.90;99.90
17154;DHT22;8692;52.164;7.558;2022-10-16T15:43:08;17.90;99.90
17154;DHT22;8692;52.164;7.558;2022-10-16T15:45:39;17.80;99.90
17154;DHT22;8692;52.164;7.558;2022-10-16T15:48:10;17.70;99.90
17154;DHT22;8692;52.164;7.558;2022-10-16T15:50:40;17.70;99.90
17154;DHT22;8692;52.164;7.558;2022-10-16T15:53:10;17.70;99.90
17154;DHT22;8692;52.164;7.558;2022-10-16T15:55:38;17.60;99.90
17154;DHT22;8692;52.164;7.558;2022-10-16T15:58:06;17.60;99.90
17154;DHT22;8692;52.164;7.558;2022-10-16T16:00:35;17.60;99.90
17154;DHT22;8692;52.164;7.558;2022-10-16T16:03:07;17.50;99.90
17154;DHT22;8692;52.164;7.558;2022-10-16T16:05:37;17.40;99.90
17154;DHT22;8692;52.164;7.558;2022-10-16T16:08:14;17.40;99.90
17154;DHT22;8692;52.164;7.558;2022-10-16T16:10:43;17.30;99.90
17154;DHT22;8692;52.164;7.558;2022-10-16T16:13:11;17.30;99.90
17154;DHT22;8692;52.164;7.558;2022-10-16T16:15:40;17.20;99.90
17154;DHT22;8692;52.164;7.558;2022-10-16T16:18:09;17.20;99.90
17154;DHT22;8692;52.164;7.558;2022-10-16T16:20:38;17.10;99.90